Time;durP1;ratioP1;P1;durP2;ratioP2;P2;SDS_P1;SDS_P2;PMS_P1;PMS_P2;Temp;Humidity;BMP_temperature;BMP_pressure;BME280_temperature;BME280_humidity;BME280_pressure;Samples;Min_cycle;Max_cycle;Signal;HPM_P1;HPM_P2
2022/10/05 00:00:17;;;;;;;3.80;2.50;;;10.70;99.90;;;;;;5018129;28;20689;-77
2022/10/05 00:02:45;;;;;;;3.53;2.60;;;10.80;99.90;;;;;;5027566;28;21236;-78
2022/10/05 00:05:25;;;;;;;2.10;2.00;;;10.90;99.90;;;;;;5027489;28;21061;-77
2022/10/05 00:07:53;;;;;;;4.60;3.27;;;10.90;99.90;;;;;;5027449;28;20627;-77
2022/10/05 00:10:21;;;;;;;1.70;1.60;;;10.90;99.90;;;;;;5028059;28;20637;-77
2022/10/05 00:12:49;;;;;;;2.40;2.20;;;10.70;99.90;;;;;;5027694;28;20734;-77
2022/10/05 00:15:19;;;;;;;2.27;2.10;;;10.80;99.90;;;;;;5026633;28;20622;-77
2022/10/05 00:17:45;;;;;;;2.93;2.53;;;10.90;99.90;;;;;;5027716;28;20674;-77
2022/10/05 00:20:20;;;;;;;2.30;2.20;;;10.90;99.90;;;;;;5028261;28;20619;-77
2022/10/05 00:22:47;;;;;;;4.23;3.10;;;10.90;99.90;;;;;;5027304;28;20654;-76
2022/10/05 00:25:17;;;;;;;1.97;1.67;;;10.90;99.90;;;;;;5027373;28;20611;-77
2022/10/05 00:27:53;;;;;;;2.93;2.70;;;10.70;99.90;;;;;;5027743;28;20623;-77
2022/10/05 00:30:21;;;;;;;2.20;2.00;;;10.70;99.90;;;;;;5028079;28;20623;-77
2022/10/05 00:32:48;;;;;;;3.17;2.67;;;10.80;99.90;;;;;;5031059;28;21216;-77
2022/10/05 00:35:17;;;;;;;1.83;1.73;;;10.80;99.90;;;;;;5030486;28;20685;-77
2022/10/05 00:37:44;;;;;;;4.20;2.57;;;10.90;99.90;;;;;;5031157;28;20928;-78
2022/10/05 00:40:23;;;;;;;2.60;2.27;;;10.80;99.90;;;;;;5031961;28;20649;-78
2022/10/05 00:42:57;;;;;;;5.47;2.93;;;10.80;99.90;;;;;;5031336;28;20638;-77
2022/10/05 00:45:30;;;;;;;3.53;2.87;;;10.80;99.90;;;;;;5030669;28;20631;-77
2022/10/05 00:48:05;;;;;;;1.83;1.70;;;10.80;99.90;;;;;;5031130;28;20961;-78
2022/10/05 00:50:54;;;;;;;2.43;2.23;;;10.70;99.90;;;;;;5031221;28;21058;-77
2022/10/05 00:53:33;;;;;;;2.00;1.87;;;10.60;99.90;;;;;;5030644;28;21200;-77
2022/10/05 00:56:06;;;;;;;2.07;1.90;;;10.60;99.90;;;;;;5029850;28;20634;-77
2022/10/05 00:58:50;;;;;;;3.37;3.07;;;10.60;99.90;;;;;;5024264;28;20628;-77
2022/10/05 01:01:20;;;;;;;4.60;2.57;;;10.70;99.90;;;;;;5029264;28;20706;-77
2022/10/05 01:03:59;;;;;;;2.60;1.97;;;10.70;99.90;;;;;;5030307;28;21006;-77
2022/10/05 01:06:35;;;;;;;2.90;2.43;;;10.70;99.90;;;;;;5029921;28;20618;-77
2022/10/05 01:09:12;;;;;;;4.13;3.00;;;10.50;99.90;;;;;;5031602;28;20824;-77
2022/10/05 01:11:44;;;;;;;3.60;2.90;;;10.40;99.90;;;;;;5030727;28;20629;-77
2022/10/05 01:14:17;;;;;;;3.40;2.70;;;10.30;99.90;;;;;;5030554;28;20619;-77
2022/10/05 01:16:52;;;;;;;2.70;2.50;;;10.30;99.90;;;;;;5030483;28;20627;-77
2022/10/05 01:19:50;;;;;;;3.13;2.80;;;10.40;99.90;;;;;;5030490;28;20721;-77
2022/10/05 01:22:29;;;;;;;2.40;2.20;;;10.50;99.90;;;;;;5024159;28;20626;-77
2022/10/05 01:25:12;;;;;;;2.37;2.03;;;10.50;99.90;;;;;;5010824;28;20775;-77
2022/10/05 01:27:48;;;;;;;4.20;3.33;;;10.50;99.90;;;;;;5011085;28;20684;-77
2022/10/05 01:30:17;;;;;;;2.23;1.90;;;10.50;99.90;;;;;;5025767;28;21196;-77
2022/10/05 01:32:50;;;;;;;2.90;2.67;;;10.50;99.90;;;;;;5030522;28;20623;-76
2022/10/05 01:35:25;;;;;;;4.60;3.00;;;10.50;99.90;;;;;;5029645;28;20673;-77
2022/10/05 01:38:03;;;;;;;4.37;2.83;;;10.50;99.90;;;;;;5030290;28;20622;-77
2022/10/05 01:40:37;;;;;;;3.23;2.57;;;10.50;99.90;;;;;;5030558;28;20630;-77
2022/10/05 01:43:11;;;;;;;2.57;2.20;;;10.50;99.90;;;;;;5030674;28;20629;-77
2022/10/05 01:45:50;;;;;;;3.43;3.03;;;10.40;99.90;;;;;;5029866;28;20662;-77
2022/10/05 01:48:22;;;;;;;2.73;1.90;;;10.30;99.90;;;;;;5029845;28;20631;-77
2022/10/05 01:51:02;;;;;;;4.23;2.60;;;10.20;99.90;;;;;;5029891;28;20631;-78
2022/10/05 01:53:42;;;;;;;2.97;2.70;;;10.20;99.90;;;;;;5012664;28;21233;-78
2022/10/05 01:56:19;;;;;;;2.43;1.83;;;10.10;99.90;;;;;;5029782;28;20717;-77
2022/10/05 01:58:56;;;;;;;3.63;2.40;;;10.20;99.90;;;;;;5024416;28;20986;-77
2022/10/05 02:01:30;;;;;;;4.10;3.00;;;10.10;99.90;;;;;;5029956;28;20630;-77
2022/10/05 02:04:03;;;;;;;4.80;2.53;;;10.10;99.90;;;;;;5029569;28;21227;-77
2022/10/05 02:06:35;;;;;;;2.47;2.27;;;10.10;99.90;;;;;;5029869;28;20713;-77
2022/10/05 02:09:08;;;;;;;2.23;2.03;;;10.10;99.90;;;;;;5014422;28;20734;-77
2022/10/05 02:11:37;;;;;;;4.83;2.80;;;10.10;99.90;;;;;;5029974;28;20622;-77
2022/10/05 02:14:11;;;;;;;1.83;1.67;;;10.10;99.90;;;;;;5029087;28;20647;-78
2022/10/05 02:16:40;;;;;;;3.10;2.43;;;10.00;99.90;;;;;;5020270;28;20615;-77
2022/10/05 02:19:13;;;;;;;2.93;2.50;;;10.00;99.90;;;;;;5029621;28;20623;-77
2022/10/05 02:21:41;;;;;;;3.20;2.90;;;9.90;99.90;;;;;;5030120;28;20615;-77
2022/10/05 02:24:12;;;;;;;7.67;3.50;;;9.80;99.90;;;;;;5029486;28;20651;-77
2022/10/05 02:26:41;;;;;;;2.03;1.77;;;9.70;99.90;;;;;;5029282;28;21235;-77
2022/10/05 02:29:13;;;;;;;2.47;2.27;;;9.80;99.90;;;;;;5028862;28;21276;-78
2022/10/05 02:31:46;;;;;;;4.03;3.60;;;9.90;99.90;;;;;;5029618;28;20611;-77
2022/10/05 02:34:27;;;;;;;2.83;2.63;;;10.00;99.90;;;;;;5028231;28;20622;-78
2022/10/05 02:37:11;;;;;;;4.13;3.53;;;10.00;99.90;;;;;;5028992;28;20722;-77
2022/10/05 02:39:47;;;;;;;5.00;3.57;;;10.10;99.90;;;;;;5028653;28;20704;-78
2022/10/05 02:42:22;;;;;;;2.90;2.60;;;10.20;99.90;;;;;;5029293;28;20718;-76
2022/10/05 02:45:03;;;;;;;4.27;3.20;;;10.20;99.90;;;;;;5016310;28;21273;-77
2022/10/05 02:47:37;;;;;;;6.73;3.27;;;10.20;99.90;;;;;;5009340;28;20620;-77
2022/10/05 02:50:13;;;;;;;3.23;2.40;;;10.20;99.90;;;;;;5020058;28;20623;-77
2022/10/05 02:52:51;;;;;;;3.57;3.00;;;10.10;99.90;;;;;;5014009;28;20693;-77
2022/10/05 02:55:24;;;;;;;2.60;2.40;;;10.20;99.90;;;;;;5025571;28;20730;-76
2022/10/05 02:57:58;;;;;;;4.43;3.47;;;10.10;99.90;;;;;;5030107;28;20983;-77
2022/10/05 03:00:32;;;;;;;3.53;2.63;;;10.10;99.90;;;;;;5028876;28;21078;-77
2022/10/05 03:03:06;;;;;;;4.40;3.00;;;10.00;99.90;;;;;;5030044;28;20658;-77
2022/10/05 03:05:38;;;;;;;3.43;3.10;;;9.90;99.90;;;;;;5028551;28;20662;-77
2022/10/05 03:08:14;;;;;;;4.10;2.20;;;9.90;99.90;;;;;;5017187;28;20985;-77
2022/10/05 03:10:50;;;;;;;3.70;3.20;;;9.80;99.90;;;;;;5025722;28;20633;-77
2022/10/05 03:13:25;;;;;;;2.73;2.53;;;9.80;99.90;;;;;;5029621;28;20626;-77
2022/10/05 03:16:25;;;;;;;3.50;3.27;;;9.60;99.90;;;;;;5028929;28;20962;-77
2022/10/05 03:19:02;;;;;;;4.10;2.77;;;9.70;99.90;;;;;;5028192;28;20634;-77
2022/10/05 03:21:48;;;;;;;2.70;2.50;;;9.60;99.90;;;;;;5029235;28;20677;-78
2022/10/05 03:24:33;;;;;;;3.33;2.53;;;9.60;99.90;;;;;;5009151;28;20652;-77
2022/10/05 03:27:08;;;;;;;1.93;1.83;;;9.50;99.90;;;;;;5008596;28;20655;-78
2022/10/05 03:29:40;;;;;;;5.30;3.33;;;9.50;99.90;;;;;;5015910;28;20636;-77
2022/10/05 03:32:16;;;;;;;2.53;2.30;;;9.50;99.90;;;;;;5028618;28;20619;-77
2022/10/05 03:34:48;;;;;;;4.27;3.50;;;9.50;99.90;;;;;;5027606;28;20654;-77
2022/10/05 03:37:22;;;;;;;3.40;3.10;;;9.50;99.90;;;;;;5028740;28;21187;-78
2022/10/05 03:39:56;;;;;;;7.10;2.60;;;9.50;99.90;;;;;;5028356;28;20631;-78
2022/10/05 03:42:30;;;;;;;5.03;3.80;;;9.60;99.90;;;;;;5028366;28;20627;-77
2022/10/05 03:45:03;;;;;;;3.83;3.20;;;9.60;99.90;;;;;;5015603;28;20667;-77
2022/10/05 03:47:39;;;;;;;3.90;3.50;;;9.50;99.90;;;;;;5008383;28;20623;-77
2022/10/05 03:50:19;;;;;;;5.53;3.80;;;9.60;99.90;;;;;;5016846;28;20617;-77
2022/10/05 03:52:50;;;;;;;3.97;3.47;;;9.60;99.90;;;;;;5012104;28;21215;-77
2022/10/05 03:55:25;;;;;;;4.77;3.57;;;9.60;99.90;;;;;;5024124;28;21209;-78
2022/10/05 03:57:56;;;;;;;1.97;1.87;;;9.50;99.90;;;;;;5026997;28;20656;-77
2022/10/05 04:00:24;;;;;;;4.73;3.10;;;9.70;99.90;;;;;;5019129;28;20627;-77
2022/10/05 04:03:00;;;;;;;4.90;3.10;;;9.80;99.90;;;;;;5028202;28;20626;-76
2022/10/05 04:05:32;;;;;;;6.32;4.00;;;9.80;99.90;;;;;;5028122;28;20757;-78
2022/10/05 04:08:04;;;;;;;3.77;3.33;;;9.90;99.90;;;;;;5020884;28;20209;-78
2022/10/05 04:10:39;;;;;;;4.60;4.20;;;9.90;99.90;;;;;;5023966;28;20627;-77
2022/10/05 04:13:13;;;;;;;5.80;3.60;;;9.90;99.90;;;;;;5030721;28;20628;-77
2022/10/05 04:15:44;;;;;;;6.10;5.43;;;9.90;99.90;;;;;;5030180;28;20639;-77
2022/10/05 04:18:23;;;;;;;2.63;2.43;;;9.90;99.90;;;;;;5030660;28;20981;-77
2022/10/05 04:20:54;;;;;;;4.77;3.70;;;9.90;99.90;;;;;;5030545;28;20657;-77
2022/10/05 04:23:28;;;;;;;4.53;2.97;;;9.90;99.90;;;;;;5029872;28;20627;-77
2022/10/05 04:26:02;;;;;;;4.10;3.80;;;9.90;99.90;;;;;;5030142;28;20654;-78
2022/10/05 04:28:48;;;;;;;4.07;3.77;;;9.90;99.90;;;;;;5030738;28;20619;-82
2022/10/05 04:31:29;;;;;;;5.50;3.33;;;9.90;99.90;;;;;;5031899;28;20753;-80
2022/10/05 04:34:28;;;;;;;4.07;3.03;;;9.80;99.90;;;;;;5031064;28;20684;-82
2022/10/05 04:37:06;;;;;;;3.50;3.13;;;9.80;99.90;;;;;;5031774;28;20634;-83
2022/10/05 04:39:57;;;;;;;3.63;2.90;;;9.90;99.90;;;;;;5026121;28;20631;-82
2022/10/05 04:42:37;;;;;;;4.33;3.90;;;9.80;99.90;;;;;;5023417;28;20673;-81
2022/10/05 04:45:14;;;;;;;3.90;3.27;;;9.80;99.90;;;;;;5025101;28;20655;-80
2022/10/05 04:48:06;;;;;;;4.97;3.60;;;9.80;99.90;;;;;;5023092;28;20726;-80
2022/10/05 04:50:44;;;;;;;4.23;3.67;;;9.80;99.90;;;;;;5023511;28;20668;-79
2022/10/05 04:53:22;;;;;;;4.47;3.40;;;9.80;99.90;;;;;;5020591;28;21045;-80
2022/10/05 04:55:56;;;;;;;3.90;3.53;;;9.80;99.90;;;;;;5019288;28;20619;-79
2022/10/05 04:58:39;;;;;;;5.50;3.90;;;9.80;99.90;;;;;;5019345;28;21176;-79
2022/10/05 05:01:22;;;;;;;3.57;3.10;;;9.80;99.90;;;;;;5030938;28;21058;-80
2022/10/05 05:04:07;;;;;;;3.70;2.90;;;9.80;99.90;;;;;;5032777;28;20627;-79
2022/10/05 05:06:43;;;;;;;4.57;3.13;;;9.80;99.90;;;;;;5032522;28;20640;-79
2022/10/05 05:09:22;;;;;;;3.93;3.20;;;9.90;99.90;;;;;;5026374;28;20626;-78
2022/10/05 05:12:01;;;;;;;5.47;4.50;;;9.90;99.90;;;;;;5032926;28;20709;-80
2022/10/05 05:14:55;;;;;;;4.27;3.27;;;9.80;99.90;;;;;;5030423;28;20697;-80
2022/10/05 05:17:40;;;;;;;4.00;3.10;;;9.80;99.90;;;;;;5030314;28;21189;-80
2022/10/05 05:20:19;;;;;;;4.80;3.17;;;9.70;99.90;;;;;;5032885;28;21071;-79
2022/10/05 05:22:53;;;;;;;6.60;4.13;;;9.60;99.90;;;;;;5032805;28;20621;-79
2022/10/05 05:25:29;;;;;;;3.87;3.50;;;9.60;99.90;;;;;;5035467;28;20661;-78
2022/10/05 05:28:02;;;;;;;4.70;4.13;;;9.60;99.90;;;;;;5037669;28;20629;-79
2022/10/05 05:30:39;;;;;;;4.30;2.90;;;9.50;99.90;;;;;;5038588;28;20718;-80
2022/10/05 05:33:21;;;;;;;4.03;3.40;;;9.40;99.90;;;;;;5036019;28;20649;-79
2022/10/05 05:36:16;;;;;;;3.90;2.63;;;9.40;99.90;;;;;;5041079;28;21207;-80
2022/10/05 05:38:52;;;;;;;13.55;3.20;;;9.40;99.90;;;;;;5035641;28;21280;-79
2022/10/05 05:41:26;;;;;;;5.27;4.20;;;9.40;99.90;;;;;;5037309;28;20271;-79
2022/10/05 05:44:03;;;;;;;5.13;4.53;;;9.40;99.90;;;;;;5033813;28;20625;-79
2022/10/05 05:46:36;;;;;;;3.00;2.67;;;9.40;99.90;;;;;;5036814;28;20758;-79
2022/10/05 05:49:14;;;;;;;4.23;3.00;;;9.40;99.90;;;;;;5035663;28;21039;-79
2022/10/05 05:51:47;;;;;;;3.70;3.10;;;9.50;99.90;;;;;;5037287;28;20627;-78
2022/10/05 05:54:26;;;;;;;3.17;2.87;;;9.50;99.90;;;;;;5035813;28;20623;-80
2022/10/05 05:56:58;;;;;;;4.50;3.93;;;9.50;99.90;;;;;;5024823;28;20627;-79
2022/10/05 05:59:31;;;;;;;4.33;3.00;;;9.40;99.90;;;;;;5031105;28;20622;-78
2022/10/05 06:02:05;;;;;;;5.00;3.27;;;9.40;99.90;;;;;;5040386;28;20938;-80
2022/10/05 06:04:37;;;;;;;4.90;3.97;;;9.40;99.90;;;;;;5038432;28;20666;-79
2022/10/05 06:07:05;;;;;;;3.83;3.47;;;9.50;99.90;;;;;;5039295;28;20615;-81
2022/10/05 06:09:38;;;;;;;7.03;4.00;;;9.60;99.90;;;;;;5041122;28;20753;-81
2022/10/05 06:12:10;;;;;;;3.50;3.20;;;9.60;99.90;;;;;;5039203;28;20615;-81
2022/10/05 06:14:43;;;;;;;6.80;5.20;;;9.70;99.90;;;;;;5037908;28;20619;-81
2022/10/05 06:17:14;;;;;;;4.80;4.10;;;9.70;99.90;;;;;;5037032;28;20631;-80
2022/10/05 06:19:43;;;;;;;3.67;3.30;;;9.70;99.90;;;;;;5036690;28;21181;-80
2022/10/05 06:22:17;;;;;;;3.70;3.30;;;9.80;99.90;;;;;;5038931;28;20641;-81
2022/10/05 06:24:57;;;;;;;3.03;2.83;;;9.90;99.90;;;;;;5019158;28;20710;-81
2022/10/05 06:27:34;;;;;;;3.40;2.60;;;10.00;99.90;;;;;;5022069;28;20632;-80
2022/10/05 06:30:07;;;;;;;3.63;3.07;;;10.00;99.90;;;;;;5041115;28;20646;-80
2022/10/05 06:32:41;;;;;;;5.60;4.20;;;10.10;99.90;;;;;;5040348;28;20650;-81
2022/10/05 06:35:19;;;;;;;3.57;3.27;;;10.10;99.90;;;;;;5038354;28;20623;-80
2022/10/05 06:38:00;;;;;;;4.63;3.20;;;10.30;99.90;;;;;;5040109;28;20632;-80
2022/10/05 06:40:49;;;;;;;5.70;4.33;;;10.40;99.90;;;;;;5038907;28;20633;-81
2022/10/05 06:43:34;;;;;;;3.60;3.33;;;10.50;99.90;;;;;;5041220;28;20682;-80
2022/10/05 06:46:08;;;;;;;5.10;3.37;;;10.60;99.90;;;;;;5017957;28;20670;-80
2022/10/05 06:48:55;;;;;;;4.37;3.93;;;10.70;99.90;;;;;;5019020;28;20624;-80
2022/10/05 06:51:32;;;;;;;6.77;3.70;;;10.80;99.90;;;;;;5030412;28;20746;-79
2022/10/05 06:54:11;;;;;;;3.73;3.37;;;11.00;99.90;;;;;;5023426;28;20618;-79
2022/10/05 06:56:43;;;;;;;7.30;3.43;;;11.20;99.90;;;;;;5037609;28;20620;-80
2022/10/05 06:59:15;;;;;;;2.90;2.33;;;11.20;99.90;;;;;;5028483;28;20621;-80
2022/10/05 07:01:50;;;;;;;3.70;3.40;;;11.40;99.90;;;;;;5036760;28;20657;-80
2022/10/05 07:04:44;;;;;;;7.60;3.70;;;11.50;99.90;;;;;;5026700;28;20623;-81
2022/10/05 07:07:19;;;;;;;3.60;2.50;;;11.60;99.90;;;;;;5036693;28;20631;-82
2022/10/05 07:09:58;;;;;;;5.37;3.70;;;11.70;99.90;;;;;;5040087;28;20698;-82
2022/10/05 07:12:40;;;;;;;5.37;3.13;;;11.80;99.90;;;;;;5041719;28;20615;-81
2022/10/05 07:15:29;;;;;;;2.23;2.03;;;11.90;99.90;;;;;;5037181;28;20611;-79
2022/10/05 07:18:05;;;;;;;3.43;3.13;;;11.90;99.90;;;;;;5022431;28;20730;-80
2022/10/05 07:20:37;;;;;;;2.53;2.33;;;12.00;99.90;;;;;;5040871;28;20655;-81
2022/10/05 07:23:18;;;;;;;3.33;2.57;;;12.10;99.90;;;;;;5041613;28;20619;-80
2022/10/05 07:25:50;;;;;;;4.43;4.13;;;12.20;99.90;;;;;;5039160;28;20656;-81
2022/10/05 07:28:26;;;;;;;3.27;2.97;;;12.30;99.90;;;;;;5040248;28;20718;-80
2022/10/05 07:30:59;;;;;;;2.60;2.40;;;12.40;99.90;;;;;;5041245;28;20627;-81
2022/10/05 07:33:33;;;;;;;3.73;3.07;;;12.60;99.90;;;;;;5040313;28;20650;-81
2022/10/05 07:39:01;;;;;;;3.00;2.80;;;12.70;99.90;;;;;;5040087;28;20611;-81
2022/10/05 07:41:36;;;;;;;3.00;2.73;;;12.80;99.90;;;;;;5036264;28;20622;-82
2022/10/05 07:44:12;;;;;;;2.73;2.40;;;12.90;99.90;;;;;;5026213;28;20709;-81
2022/10/05 07:46:50;;;;;;;3.80;3.40;;;13.00;99.90;;;;;;5041068;28;20658;-80
2022/10/05 07:49:25;;;;;;;3.87;3.57;;;13.10;99.90;;;;;;5038068;28;20625;-81
2022/10/05 07:51:56;;;;;;;3.20;2.73;;;13.20;99.90;;;;;;5028223;28;20612;-80
2022/10/05 07:54:27;;;;;;;18.00;3.30;;;13.30;99.90;;;;;;5028857;28;21350;-81
2022/10/05 07:56:59;;;;;;;3.70;3.40;;;13.50;99.90;;;;;;5022288;28;20623;-80
2022/10/05 07:59:34;;;;;;;4.80;4.40;;;13.50;99.90;;;;;;5031914;28;20634;-80
2022/10/05 08:02:11;;;;;;;3.60;3.30;;;13.60;99.90;;;;;;5038957;28;20654;-81
2022/10/05 08:04:46;;;;;;;5.00;3.60;;;13.70;99.90;;;;;;5040828;28;20618;-81
2022/10/05 08:07:16;;;;;;;4.00;3.60;;;13.70;99.90;;;;;;5039418;28;20884;-80
2022/10/05 08:09:48;;;;;;;4.63;3.23;;;13.80;99.90;;;;;;5040992;28;20630;-79
2022/10/05 08:12:29;;;;;;;4.43;4.00;;;13.90;99.90;;;;;;5040031;28;20730;-81
2022/10/05 08:15:02;;;;;;;4.63;4.23;;;14.00;99.90;;;;;;5036072;28;20657;-80
2022/10/05 08:17:39;;;;;;;6.10;4.10;;;14.00;99.90;;;;;;5033733;28;20831;-81
2022/10/05 08:20:23;;;;;;;7.40;3.83;;;14.00;99.90;;;;;;5029831;28;20615;-81
2022/10/05 08:22:54;;;;;;;3.80;3.50;;;14.10;99.90;;;;;;5032908;28;20629;-81
2022/10/05 08:25:25;;;;;;;5.33;4.10;;;14.20;99.90;;;;;;5034339;28;20665;-80
2022/10/05 08:27:59;;;;;;;4.23;3.33;;;14.30;99.90;;;;;;5033422;28;20981;-81
2022/10/05 08:30:30;;;;;;;4.10;3.43;;;14.40;99.90;;;;;;5037898;28;20619;-80
2022/10/05 08:33:04;;;;;;;3.50;3.13;;;14.40;99.90;;;;;;5037074;28;20619;-81
2022/10/05 08:35:37;;;;;;;3.07;2.77;;;14.50;99.90;;;;;;5036502;28;20760;-81
2022/10/05 08:38:11;;;;;;;3.47;3.00;;;14.50;99.90;;;;;;5033128;28;20678;-81
2022/10/05 08:41:01;;;;;;;3.40;3.10;;;14.60;99.90;;;;;;5037562;28;20637;-81
2022/10/05 08:44:04;;;;;;;3.20;2.90;;;14.80;99.90;;;;;;5036303;28;20629;-82
2022/10/05 08:46:50;;;;;;;3.83;3.33;;;14.80;99.90;;;;;;5016687;28;20675;-81
2022/10/05 08:49:45;;;;;;;5.50;4.03;;;15.00;99.90;;;;;;5013750;28;20628;-80
2022/10/05 08:52:23;;;;;;;6.27;5.10;;;15.00;99.90;;;;;;5013694;28;20737;-80
2022/10/05 08:55:22;;;;;;;5.03;4.53;;;15.20;99.90;;;;;;5035962;28;20654;-81
2022/10/05 08:58:32;;;;;;;3.87;3.17;;;15.40;99.90;;;;;;5024179;28;21047;-81
2022/10/05 09:01:06;;;;;;;4.40;3.10;;;15.70;99.90;;;;;;5045097;28;20626;-80
2022/10/05 09:04:16;;;;;;;2.40;2.10;;;15.60;99.90;;;;;;5043507;28;20619;-81
2022/10/05 09:07:08;;;;;;;3.20;2.90;;;15.80;99.90;;;;;;5043246;28;20669;-81
2022/10/05 09:10:05;;;;;;;2.10;1.90;;;16.10;99.90;;;;;;5044495;28;20627;-82
2022/10/05 09:13:04;;;;;;;3.57;2.07;;;16.00;99.90;;;;;;5043730;28;20707;-82
2022/10/05 09:16:03;;;;;;;2.33;2.10;;;16.00;99.90;;;;;;5043267;28;20793;-82
2022/10/05 09:18:51;;;;;;;3.13;2.00;;;16.20;99.90;;;;;;5021390;28;20695;-82
2022/10/05 09:21:33;;;;;;;1.60;1.50;;;16.30;99.90;;;;;;5044178;28;20730;-81
2022/10/05 09:24:22;;;;;;;1.50;1.43;;;16.40;99.90;;;;;;5038072;28;20619;-80
2022/10/05 09:27:00;;;;;;;1.70;1.60;;;16.50;99.90;;;;;;5027007;28;20934;-82
2022/10/05 09:30:01;;;;;;;1.43;1.33;;;16.70;99.90;;;;;;5040278;28;20688;-82
2022/10/05 09:32:50;;;;;;;3.50;1.60;;;16.80;99.90;;;;;;5040857;28;20614;-82
2022/10/05 09:35:38;;;;;;;1.47;1.23;;;17.00;99.90;;;;;;5041557;28;21067;-81
2022/10/05 09:38:16;;;;;;;1.40;1.30;;;17.10;99.90;;;;;;5041301;28;20634;-81
2022/10/05 09:41:14;;;;;;;10.20;7.37;;;17.10;99.90;;;;;;5041449;28;20703;-81
2022/10/05 09:44:18;;;;;;;2.10;1.90;;;17.10;99.90;;;;;;5040514;28;20738;-81
2022/10/05 09:47:04;;;;;;;1.97;1.67;;;17.30;99.90;;;;;;5034192;28;20672;-81
2022/10/05 09:49:56;;;;;;;1.23;1.10;;;17.20;99.90;;;;;;5039933;28;20630;-80
2022/10/05 09:52:56;;;;;;;1.40;1.30;;;17.40;99.90;;;;;;5012207;28;20727;-80
2022/10/05 09:55:58;;;;;;;1.30;1.20;;;17.50;99.90;;;;;;5019932;28;20632;-80
2022/10/05 09:59:06;;;;;;;1.40;1.30;;;17.60;99.70;;;;;;5015074;28;20640;-80
2022/10/05 10:02:15;;;;;;;1.70;1.00;;;17.70;99.10;;;;;;5018510;28;20646;-81
2022/10/05 10:05:06;;;;;;;1.10;1.10;;;17.80;99.70;;;;;;5012803;28;20678;-82
2022/10/05 10:07:57;;;;;;;1.07;0.90;;;17.80;99.50;;;;;;5018525;28;20662;-81
2022/10/05 10:10:56;;;;;;;1.13;1.00;;;17.90;99.30;;;;;;5032422;28;20631;-80
2022/10/05 10:14:02;;;;;;;1.40;1.30;;;18.10;99.20;;;;;;5034918;28;20623;-81
2022/10/05 10:16:39;;;;;;;1.20;1.10;;;18.00;99.90;;;;;;5028003;28;20619;-80
2022/10/05 10:19:16;;;;;;;1.40;1.30;;;18.00;99.70;;;;;;5024256;28;21591;-81
2022/10/05 10:22:10;;;;;;;1.27;1.17;;;18.20;98.80;;;;;;5027948;28;20632;-81
2022/10/05 10:24:56;;;;;;;1.27;1.03;;;18.20;99.30;;;;;;5017405;28;20624;-81
2022/10/05 10:27:42;;;;;;;1.83;1.60;;;18.20;99.80;;;;;;5019305;28;21069;-81
2022/10/05 10:30:47;;;;;;;1.40;1.30;;;18.30;98.70;;;;;;5037441;28;21113;-81
2022/10/05 10:33:49;;;;;;;1.80;1.70;;;18.40;98.20;;;;;;5036450;28;20643;-79
2022/10/05 10:36:20;;;;;;;1.10;1.00;;;18.50;98.40;;;;;;5019022;28;20714;-79
2022/10/05 10:38:58;;;;;;;4.13;1.63;;;18.40;99.10;;;;;;5032209;28;20618;-80
2022/10/05 10:41:55;;;;;;;1.43;1.33;;;18.50;98.00;;;;;;5025006;28;20639;-81
2022/10/05 10:44:45;;;;;;;1.10;1.00;;;18.50;98.10;;;;;;5016237;28;20635;-81
2022/10/05 10:47:38;;;;;;;1.07;1.07;;;18.60;98.00;;;;;;5028086;28;20663;-81
2022/10/05 10:50:35;;;;;;;5.70;1.30;;;18.60;99.00;;;;;;5028752;28;20622;-81
2022/10/05 10:53:16;;;;;;;1.00;0.93;;;18.70;97.50;;;;;;5025298;28;20631;-81
2022/10/05 10:55:56;;;;;;;1.47;1.37;;;19.00;97.00;;;;;;5007009;28;20620;-80
2022/10/05 10:59:05;;;;;;;1.30;1.20;;;19.00;97.70;;;;;;5020504;28;21018;-81
2022/10/05 11:01:38;;;;;;;1.50;1.40;;;19.00;97.30;;;;;;5020993;28;20722;-81
2022/10/05 11:04:44;;;;;;;0.90;0.90;;;19.10;97.20;;;;;;5028534;28;21014;-81
2022/10/05 11:07:39;;;;;;;1.50;1.40;;;19.20;97.00;;;;;;5031848;28;20638;-82
2022/10/05 11:10:40;;;;;;;4.13;1.07;;;19.20;96.70;;;;;;5028797;28;20644;-82
2022/10/05 11:13:28;;;;;;;1.00;1.00;;;19.20;96.90;;;;;;4994999;28;20623;-81
2022/10/05 11:16:26;;;;;;;2.57;1.20;;;19.30;96.90;;;;;;5030309;28;20730;-80
2022/10/05 11:19:31;;;;;;;1.00;1.00;;;19.30;96.90;;;;;;5032534;28;20627;-81
2022/10/05 11:22:13;;;;;;;1.23;1.10;;;19.40;96.80;;;;;;5002915;28;20646;-83
2022/10/05 11:25:02;;;;;;;1.50;1.40;;;19.40;97.30;;;;;;5029221;28;20681;-82
2022/10/05 11:27:52;;;;;;;1.60;1.50;;;19.40;96.90;;;;;;5025766;28;20758;-82
2022/10/05 11:30:53;;;;;;;1.00;1.00;;;19.40;97.50;;;;;;5021850;28;20730;-81
2022/10/05 11:33:51;;;;;;;1.70;1.60;;;19.50;97.00;;;;;;5012699;28;20624;-82
2022/10/05 11:36:47;;;;;;;1.20;1.13;;;19.50;97.20;;;;;;5022369;28;20718;-81
2022/10/05 11:39:37;;;;;;;3.77;1.40;;;19.60;96.60;;;;;;4995395;28;20631;-79
2022/10/05 11:42:34;;;;;;;1.40;1.30;;;19.70;97.10;;;;;;5016041;28;21504;-82
2022/10/05 11:45:26;;;;;;;1.90;1.80;;;19.80;96.60;;;;;;5019998;28;20624;-82
2022/10/05 11:48:20;;;;;;;1.90;1.67;;;19.80;97.30;;;;;;5017574;28;20648;-82
2022/10/05 11:51:04;;;;;;;1.50;1.33;;;19.80;96.60;;;;;;5017901;28;20615;-82
2022/10/05 11:53:38;;;;;;;1.53;1.30;;;19.80;96.80;;;;;;5024018;28;20750;-81
2022/10/05 11:56:11;;;;;;;1.57;1.47;;;19.90;96.70;;;;;;5017891;28;20717;-81
2022/10/05 11:58:48;;;;;;;1.23;1.13;;;20.00;96.60;;;;;;5018584;28;20628;-81
2022/10/05 12:01:21;;;;;;;1.30;1.20;;;20.10;96.40;;;;;;5018659;28;20634;-80
2022/10/05 12:03:57;;;;;;;1.50;1.40;;;20.10;96.30;;;;;;5019494;28;20630;-81
2022/10/05 12:06:38;;;;;;;1.70;1.60;;;20.20;96.70;;;;;;5027259;28;21287;-81
2022/10/05 12:09:18;;;;;;;1.40;1.23;;;20.20;96.80;;;;;;5008862;28;20630;-81
2022/10/05 12:12:03;;;;;;;1.73;1.50;;;20.20;96.30;;;;;;5014719;28;20628;-81
2022/10/05 12:14:44;;;;;;;1.43;1.33;;;20.30;96.30;;;;;;5017380;28;20623;-80
2022/10/05 12:17:18;;;;;;;1.53;1.43;;;20.40;96.00;;;;;;5020395;28;20620;-81
2022/10/05 12:19:48;;;;;;;1.70;1.60;;;20.50;96.80;;;;;;5018639;28;20619;-81
2022/10/05 12:22:20;;;;;;;1.60;1.40;;;20.60;96.30;;;;;;5016717;28;20667;-80
2022/10/05 12:25:28;;;;;;;1.73;1.60;;;20.60;96.00;;;;;;5011900;28;20628;-80
2022/10/05 12:28:03;;;;;;;1.47;0.97;;;20.70;96.30;;;;;;5001356;28;21224;-81
2022/10/05 12:30:51;;;;;;;1.50;1.27;;;20.80;96.60;;;;;;5020744;28;21223;-81
2022/10/05 12:33:21;;;;;;;4.10;1.63;;;20.80;95.50;;;;;;5021288;28;21207;-81
2022/10/05 12:35:52;;;;;;;2.20;2.00;;;21.00;95.10;;;;;;5019768;28;20733;-81
2022/10/05 12:38:27;;;;;;;1.43;1.33;;;21.00;95.20;;;;;;5031225;28;20713;-81
2022/10/05 12:41:06;;;;;;;1.37;1.27;;;21.10;94.30;;;;;;5031757;28;20662;-81
2022/10/05 12:43:40;;;;;;;2.10;1.50;;;21.10;93.70;;;;;;5031533;28;20622;-80
2022/10/05 12:46:22;;;;;;;0.90;0.90;;;21.10;94.30;;;;;;5030888;28;20970;-80
2022/10/05 12:49:09;;;;;;;0.70;0.70;;;21.10;92.70;;;;;;5025925;28;20631;-81
2022/10/05 12:51:40;;;;;;;1.13;0.97;;;21.10;92.70;;;;;;5010935;28;20975;-81
2022/10/05 12:54:20;;;;;;;1.43;1.10;;;21.00;93.00;;;;;;5010678;28;20624;-80
2022/10/05 12:56:54;;;;;;;0.60;0.60;;;21.00;93.60;;;;;;5017836;28;20626;-81
2022/10/05 12:59:35;;;;;;;0.63;0.63;;;21.10;88.50;;;;;;5019432;28;20622;-81
2022/10/05 13:02:11;;;;;;;0.90;0.90;;;21.10;88.80;;;;;;5026957;28;20615;-80
2022/10/05 13:04:46;;;;;;;1.00;0.97;;;21.10;90.10;;;;;;5019126;28;20629;-81
2022/10/05 13:07:30;;;;;;;0.70;0.50;;;21.10;87.00;;;;;;5019026;28;20651;-81
2022/10/05 13:10:03;;;;;;;0.80;0.80;;;21.10;89.50;;;;;;5020702;28;20960;-81
2022/10/05 13:12:54;;;;;;;0.80;0.80;;;21.20;85.90;;;;;;5021525;28;20645;-82
2022/10/05 13:15:46;;;;;;;0.83;0.83;;;21.30;86.60;;;;;;5020345;28;20713;-80
2022/10/05 13:18:21;;;;;;;0.63;0.63;;;21.30;86.10;;;;;;5022574;28;20626;-79
2022/10/05 13:21:01;;;;;;;1.03;0.60;;;21.30;84.50;;;;;;5019950;28;20654;-79
2022/10/05 13:23:39;;;;;;;0.63;0.63;;;21.30;84.60;;;;;;5016528;28;20722;-80
2022/10/05 13:26:11;;;;;;;0.70;0.70;;;21.40;83.90;;;;;;5020434;28;21292;-81
2022/10/05 13:28:42;;;;;;;1.43;0.40;;;21.40;84.30;;;;;;5018571;28;20659;-79
2022/10/05 13:31:18;;;;;;;0.70;0.70;;;21.50;81.60;;;;;;5017440;28;20627;-82
2022/10/05 13:34:11;;;;;;;0.97;0.87;;;21.40;85.10;;;;;;5018846;28;20983;-83
2022/10/05 13:36:45;;;;;;;0.60;0.60;;;21.40;84.30;;;;;;5023431;28;21223;-81
2022/10/05 13:39:23;;;;;;;0.73;0.70;;;21.40;81.30;;;;;;5016253;28;20722;-82
2022/10/05 13:41:55;;;;;;;0.83;0.70;;;21.40;81.10;;;;;;5022231;28;20635;-80
2022/10/05 13:44:30;;;;;;;1.50;1.40;;;21.30;81.50;;;;;;5017890;28;20750;-80
2022/10/05 13:47:01;;;;;;;1.03;0.87;;;21.40;79.70;;;;;;5029954;28;20745;-81
2022/10/05 13:49:37;;;;;;;2.90;0.87;;;21.40;80.70;;;;;;5029829;28;20617;-82
2022/10/05 13:52:19;;;;;;;0.80;0.80;;;21.40;81.40;;;;;;5029499;28;20726;-82
2022/10/05 13:54:53;;;;;;;0.73;0.70;;;21.30;82.20;;;;;;5009370;28;20685;-84
2022/10/05 13:57:33;;;;;;;1.70;0.73;;;21.30;85.70;;;;;;5024390;28;20626;-83